Airfield :
LOGIN :

Register | Disclaimer

   EN    FR    IT 

 










Legend :    VFR   Marginal VFR   IFR   Intensive IFR   Very Intensive IFR
Visi :
Ceiling :
>= 8 km
>= 3000ft
5 to 8 km
1000 to 3000 ft
1500m to 5 km
500 to 1000 ft
800 to 1500m
200 to 500 ft
< 800m
< 200 ft
Symbols :   Thunderstorms  Fog  Heavy snow  Heavy precipitations  Wind > 20 kt
SIGMETs :     Misc.  Thunderstorms  Icing  Turbulence  Mountain Waves  Volcanic Ashes






- Airport Elevation : 885 ft
- IATA code : BAS


LFSB - Bale-Mulhouse

CURRENT METAR :
  • 241100Z 25006KT 220V290 9999 SCT023 SCT043 03/M02 Q1005 NOSIG

EXPIRED METARs :
  • 241030Z 27009KT 240V300 9999 FEW021 SCT043 03/M03 Q1005 NOSIG
  • 241000Z 28009KT 9999 FEW020 03/M02 Q1004 NOSIG
  • 240930Z 27010KT 9999 FEW020 02/M04 Q1004 NOSIG
  • 240900Z 26011KT 9999 FEW016 02/M04 Q1004 NOSIG
  • 240830Z 24010KT 9999 FEW016 02/M03 Q1003 NOSIG

TAF AMD TAF LFSB
Valid from the 24 at 09:00 until the 25 at 06:00 UTC


240945Z 2409/2506 26010KT 9999 FEW015
TEMPO 2415/2501 16005KT
BECMG 2420/2423 BKN030
TEMPO 2421/2503 2000 -SN BKN008
PROB30
TEMPO 2421/2423 -SNRA
PROB40
TEMPO 2423/2503 1000 SN BKN003 BKN025 FEW040TCU
TEMPO 2503/2506 25015G25KT
PROB40
TEMPO 2503/2506 2000 -SHSN BKN008 BKN025 FEW040TCU
Met : +33 3 89 90 31 11



MET'MAP, your aeronautical weather chart ! - Copyright ORBIFLY December 2007 - Disclaimer

ORBIFLY MET'MAP TEAM :

Programming & Development : Alexandra Zaïnal
Concept & original design : Baudouin d'Aumeries
Assistance for programming : Marc-Olivier Méhu
Technical & hardware support : Manuel Goepfert

Contact : metmap@orbifly.com




SOURCES & CREDITS :

   NOAA